sensor_id;sensor_type;location;lat;lon;timestamp;P1;durP1;ratioP1;P2;durP2;ratioP2
64932;SDS011;51446;53.850;10.662;2022-12-13T00:01:47;36.07;;;18.27;;
64932;SDS011;51446;53.850;10.662;2022-12-13T00:04:14;41.33;;;17.88;;
64932;SDS011;51446;53.850;10.662;2022-12-13T00:06:40;38.83;;;17.60;;
64932;SDS011;51446;53.850;10.662;2022-12-13T00:09:05;37.87;;;17.73;;
64932;SDS011;51446;53.850;10.662;2022-12-13T00:11:31;42.97;;;19.40;;
64932;SDS011;51446;53.850;10.662;2022-12-13T00:13:56;40.08;;;19.25;;
64932;SDS011;51446;53.850;10.662;2022-12-13T00:16:23;45.57;;;20.10;;
64932;SDS011;51446;53.850;10.662;2022-12-13T00:18:51;40.47;;;18.92;;
64932;SDS011;51446;53.850;10.662;2022-12-13T00:21:19;38.17;;;19.57;;
64932;SDS011;51446;53.850;10.662;2022-12-13T00:23:46;42.97;;;18.48;;
64932;SDS011;51446;53.850;10.662;2022-12-13T00:26:12;48.43;;;20.63;;
64932;SDS011;51446;53.850;10.662;2022-12-13T00:28:40;38.65;;;18.27;;
64932;SDS011;51446;53.850;10.662;2022-12-13T00:31:06;40.97;;;18.98;;
64932;SDS011;51446;53.850;10.662;2022-12-13T00:33:32;39.88;;;19.20;;
64932;SDS011;51446;53.850;10.662;2022-12-13T00:35:57;44.27;;;19.57;;
64932;SDS011;51446;53.850;10.662;2022-12-13T00:38:22;37.53;;;18.67;;
64932;SDS011;51446;53.850;10.662;2022-12-13T00:40:48;45.53;;;20.27;;
64932;SDS011;51446;53.850;10.662;2022-12-13T00:43:15;42.20;;;19.25;;
64932;SDS011;51446;53.850;10.662;2022-12-13T00:45:41;45.37;;;19.83;;
64932;SDS011;51446;53.850;10.662;2022-12-13T00:48:06;42.22;;;19.88;;
64932;SDS011;51446;53.850;10.662;2022-12-13T00:50:32;44.88;;;19.25;;
64932;SDS011;51446;53.850;10.662;2022-12-13T00:52:58;41.27;;;19.87;;
64932;SDS011;51446;53.850;10.662;2022-12-13T00:55:24;42.03;;;19.42;;
64932;SDS011;51446;53.850;10.662;2022-12-13T00:57:50;44.60;;;19.53;;
64932;SDS011;51446;53.850;10.662;2022-12-13T01:00:15;39.70;;;18.17;;
64932;SDS011;51446;53.850;10.662;2022-12-13T01:02:41;43.63;;;19.67;;
64932;SDS011;51446;53.850;10.662;2022-12-13T01:05:07;43.22;;;19.63;;
64932;SDS011;51446;53.850;10.662;2022-12-13T01:07:33;42.72;;;19.27;;
64932;SDS011;51446;53.850;10.662;2022-12-13T01:09:58;42.83;;;19.40;;
64932;SDS011;51446;53.850;10.662;2022-12-13T01:12:23;38.40;;;18.83;;
64932;SDS011;51446;53.850;10.662;2022-12-13T01:14:49;40.17;;;18.83;;
64932;SDS011;51446;53.850;10.662;2022-12-13T01:17:14;38.17;;;17.53;;
64932;SDS011;51446;53.850;10.662;2022-12-13T01:19:39;44.60;;;19.80;;
64932;SDS011;51446;53.850;10.662;2022-12-13T01:22:05;36.83;;;19.17;;
64932;SDS011;51446;53.850;10.662;2022-12-13T01:24:31;41.92;;;20.25;;
64932;SDS011;51446;53.850;10.662;2022-12-13T01:26:57;42.53;;;19.63;;
64932;SDS011;51446;53.850;10.662;2022-12-13T01:29:23;37.78;;;19.55;;
64932;SDS011;51446;53.850;10.662;2022-12-13T01:31:50;40.53;;;18.77;;
64932;SDS011;51446;53.850;10.662;2022-12-13T01:34:16;41.73;;;19.33;;
64932;SDS011;51446;53.850;10.662;2022-12-13T01:36:44;42.95;;;19.67;;
64932;SDS011;51446;53.850;10.662;2022-12-13T01:39:11;43.73;;;20.30;;
64932;SDS011;51446;53.850;10.662;2022-12-13T01:41:38;36.97;;;18.30;;
64932;SDS011;51446;53.850;10.662;2022-12-13T01:44:04;39.93;;;18.33;;
64932;SDS011;51446;53.850;10.662;2022-12-13T01:46:32;36.13;;;18.73;;
64932;SDS011;51446;53.850;10.662;2022-12-13T01:49:05;39.97;;;19.15;;
64932;SDS011;51446;53.850;10.662;2022-12-13T01:54:05;43.30;;;18.98;;
64932;SDS011;51446;53.850;10.662;2022-12-13T01:56:36;40.30;;;19.20;;
64932;SDS011;51446;53.850;10.662;2022-12-13T01:59:05;38.33;;;20.52;;
64932;SDS011;51446;53.850;10.662;2022-12-13T02:01:33;41.70;;;19.10;;
64932;SDS011;51446;53.850;10.662;2022-12-13T02:03:59;42.33;;;19.10;;
64932;SDS011;51446;53.850;10.662;2022-12-13T02:06:29;40.97;;;18.40;;
64932;SDS011;51446;53.850;10.662;2022-12-13T02:08:59;39.08;;;18.55;;
64932;SDS011;51446;53.850;10.662;2022-12-13T02:11:26;41.35;;;20.05;;
64932;SDS011;51446;53.850;10.662;2022-12-13T02:13:52;42.22;;;19.20;;
64932;SDS011;51446;53.850;10.662;2022-12-13T02:19:08;35.55;;;18.25;;
64932;SDS011;51446;53.850;10.662;2022-12-13T02:21:46;44.50;;;18.13;;
64932;SDS011;51446;53.850;10.662;2022-12-13T02:24:39;38.65;;;18.85;;
64932;SDS011;51446;53.850;10.662;2022-12-13T02:27:23;40.50;;;19.30;;
64932;SDS011;51446;53.850;10.662;2022-12-13T02:30:32;39.10;;;18.00;;
64932;SDS011;51446;53.850;10.662;2022-12-13T02:32:59;42.47;;;18.30;;
64932;SDS011;51446;53.850;10.662;2022-12-13T02:36:11;42.43;;;19.20;;
64932;SDS011;51446;53.850;10.662;2022-12-13T02:47:23;41.92;;;18.77;;
64932;SDS011;51446;53.850;10.662;2022-12-13T02:49:47;36.77;;;18.63;;
64932;SDS011;51446;53.850;10.662;2022-12-13T02:52:16;41.13;;;18.83;;
64932;SDS011;51446;53.850;10.662;2022-12-13T02:54:43;42.17;;;19.58;;
64932;SDS011;51446;53.850;10.662;2022-12-13T02:59:55;43.75;;;19.73;;
64932;SDS011;51446;53.850;10.662;2022-12-13T03:02:31;39.13;;;17.77;;
64932;SDS011;51446;53.850;10.662;2022-12-13T03:05:13;43.80;;;19.30;;
64932;SDS011;51446;53.850;10.662;2022-12-13T03:08:22;40.25;;;18.50;;
64932;SDS011;51446;53.850;10.662;2022-12-13T03:13:29;37.97;;;18.42;;
64932;SDS011;51446;53.850;10.662;2022-12-13T03:16:21;34.80;;;17.05;;
64932;SDS011;51446;53.850;10.662;2022-12-13T03:18:52;34.20;;;17.83;;
64932;SDS011;51446;53.850;10.662;2022-12-13T03:21:19;43.83;;;18.50;;
64932;SDS011;51446;53.850;10.662;2022-12-13T03:23:45;38.63;;;19.33;;
64932;SDS011;51446;53.850;10.662;2022-12-13T03:26:16;41.72;;;18.33;;
64932;SDS011;51446;53.850;10.662;2022-12-13T03:28:45;40.25;;;18.85;;
64932;SDS011;51446;53.850;10.662;2022-12-13T03:31:10;39.93;;;19.10;;
64932;SDS011;51446;53.850;10.662;2022-12-13T03:33:35;38.03;;;17.97;;
64932;SDS011;51446;53.850;10.662;2022-12-13T03:36:02;39.53;;;19.52;;
64932;SDS011;51446;53.850;10.662;2022-12-13T03:38:29;41.85;;;18.65;;
64932;SDS011;51446;53.850;10.662;2022-12-13T03:40:56;39.08;;;17.85;;
64932;SDS011;51446;53.850;10.662;2022-12-13T03:43:27;40.47;;;19.00;;
64932;SDS011;51446;53.850;10.662;2022-12-13T03:45:53;40.47;;;18.20;;
64932;SDS011;51446;53.850;10.662;2022-12-13T03:48:19;37.10;;;18.20;;
64932;SDS011;51446;53.850;10.662;2022-12-13T03:50:45;42.93;;;19.00;;
64932;SDS011;51446;53.850;10.662;2022-12-13T03:53:11;39.75;;;18.75;;
64932;SDS011;51446;53.850;10.662;2022-12-13T03:55:36;42.63;;;17.93;;
64932;SDS011;51446;53.850;10.662;2022-12-13T03:58:02;41.90;;;18.50;;
64932;SDS011;51446;53.850;10.662;2022-12-13T04:00:27;42.43;;;18.50;;
64932;SDS011;51446;53.850;10.662;2022-12-13T04:02:52;42.57;;;18.97;;
64932;SDS011;51446;53.850;10.662;2022-12-13T04:05:17;37.83;;;17.73;;
64932;SDS011;51446;53.850;10.662;2022-12-13T04:07:43;37.53;;;19.33;;
64932;SDS011;51446;53.850;10.662;2022-12-13T04:10:08;39.30;;;18.97;;
64932;SDS011;51446;53.850;10.662;2022-12-13T04:12:34;46.17;;;19.40;;
64932;SDS011;51446;53.850;10.662;2022-12-13T04:15:18;42.88;;;19.13;;
64932;SDS011;51446;53.850;10.662;2022-12-13T04:17:43;40.47;;;19.63;;
64932;SDS011;51446;53.850;10.662;2022-12-13T04:20:08;42.63;;;19.13;;
64932;SDS011;51446;53.850;10.662;2022-12-13T04:22:34;42.58;;;19.23;;
64932;SDS011;51446;53.850;10.662;2022-12-13T04:24:59;41.90;;;19.38;;
64932;SDS011;51446;53.850;10.662;2022-12-13T04:27:25;38.67;;;18.07;;
64932;SDS011;51446;53.850;10.662;2022-12-13T04:29:50;39.30;;;18.73;;
64932;SDS011;51446;53.850;10.662;2022-12-13T04:32:15;45.00;;;19.50;;
64932;SDS011;51446;53.850;10.662;2022-12-13T04:34:41;40.53;;;19.47;;
64932;SDS011;51446;53.850;10.662;2022-12-13T04:37:06;42.23;;;19.97;;
64932;SDS011;51446;53.850;10.662;2022-12-13T04:39:32;41.75;;;18.92;;
64932;SDS011;51446;53.850;10.662;2022-12-13T04:41:58;45.30;;;19.90;;
64932;SDS011;51446;53.850;10.662;2022-12-13T04:44:23;47.53;;;20.37;;
64932;SDS011;51446;53.850;10.662;2022-12-13T04:46:48;43.60;;;20.73;;
64932;SDS011;51446;53.850;10.662;2022-12-13T04:49:13;40.37;;;20.07;;
64932;SDS011;51446;53.850;10.662;2022-12-13T04:51:39;45.40;;;20.10;;
64932;SDS011;51446;53.850;10.662;2022-12-13T04:54:04;43.67;;;20.17;;
64932;SDS011;51446;53.850;10.662;2022-12-13T04:56:29;42.53;;;19.90;;
64932;SDS011;51446;53.850;10.662;2022-12-13T04:58:54;39.97;;;18.30;;
64932;SDS011;51446;53.850;10.662;2022-12-13T05:01:20;40.23;;;19.67;;
64932;SDS011;51446;53.850;10.662;2022-12-13T05:03:45;45.30;;;20.10;;
64932;SDS011;51446;53.850;10.662;2022-12-13T05:06:11;45.80;;;19.67;;
64932;SDS011;51446;53.850;10.662;2022-12-13T05:08:38;42.88;;;19.73;;
64932;SDS011;51446;53.850;10.662;2022-12-13T05:11:04;42.03;;;18.90;;
64932;SDS011;51446;53.850;10.662;2022-12-13T05:13:30;48.70;;;21.03;;
64932;SDS011;51446;53.850;10.662;2022-12-13T05:15:57;43.00;;;19.33;;
64932;SDS011;51446;53.850;10.662;2022-12-13T05:18:23;46.65;;;19.42;;
64932;SDS011;51446;53.850;10.662;2022-12-13T05:20:50;38.28;;;19.00;;
64932;SDS011;51446;53.850;10.662;2022-12-13T05:23:16;47.33;;;20.80;;
64932;SDS011;51446;53.850;10.662;2022-12-13T05:25:42;41.72;;;19.65;;
64932;SDS011;51446;53.850;10.662;2022-12-13T05:28:07;39.70;;;18.47;;
64932;SDS011;51446;53.850;10.662;2022-12-13T05:30:32;47.00;;;20.10;;
64932;SDS011;51446;53.850;10.662;2022-12-13T05:32:57;41.87;;;19.87;;
64932;SDS011;51446;53.850;10.662;2022-12-13T05:35:23;43.03;;;18.90;;
64932;SDS011;51446;53.850;10.662;2022-12-13T05:37:48;45.40;;;19.23;;
64932;SDS011;51446;53.850;10.662;2022-12-13T05:40:14;36.83;;;19.47;;
64932;SDS011;51446;53.850;10.662;2022-12-13T05:42:39;45.13;;;20.83;;
64932;SDS011;51446;53.850;10.662;2022-12-13T05:45:05;45.00;;;20.93;;
64932;SDS011;51446;53.850;10.662;2022-12-13T05:47:31;43.05;;;20.27;;
64932;SDS011;51446;53.850;10.662;2022-12-13T05:49:57;41.70;;;20.53;;
64932;SDS011;51446;53.850;10.662;2022-12-13T05:52:23;44.27;;;21.40;;
64932;SDS011;51446;53.850;10.662;2022-12-13T05:54:52;39.78;;;19.83;;
64932;SDS011;51446;53.850;10.662;2022-12-13T05:57:19;43.88;;;22.15;;
64932;SDS011;51446;53.850;10.662;2022-12-13T05:59:44;43.33;;;20.40;;
64932;SDS011;51446;53.850;10.662;2022-12-13T06:02:10;46.10;;;21.30;;
64932;SDS011;51446;53.850;10.662;2022-12-13T06:04:35;43.90;;;21.03;;
64932;SDS011;51446;53.850;10.662;2022-12-13T06:07:00;53.93;;;23.10;;
64932;SDS011;51446;53.850;10.662;2022-12-13T06:09:26;50.40;;;23.30;;
64932;SDS011;51446;53.850;10.662;2022-12-13T06:11:51;54.27;;;22.27;;
64932;SDS011;51446;53.850;10.662;2022-12-13T06:14:16;47.13;;;21.53;;
64932;SDS011;51446;53.850;10.662;2022-12-13T06:16:41;48.23;;;20.93;;
64932;SDS011;51446;53.850;10.662;2022-12-13T06:19:07;51.50;;;22.23;;
64932;SDS011;51446;53.850;10.662;2022-12-13T06:21:32;51.10;;;20.33;;
64932;SDS011;51446;53.850;10.662;2022-12-13T06:23:58;47.97;;;21.30;;
64932;SDS011;51446;53.850;10.662;2022-12-13T06:26:24;49.33;;;22.27;;
64932;SDS011;51446;53.850;10.662;2022-12-13T06:28:49;45.37;;;20.87;;
64932;SDS011;51446;53.850;10.662;2022-12-13T06:31:14;47.43;;;21.57;;
64932;SDS011;51446;53.850;10.662;2022-12-13T06:33:39;39.70;;;20.03;;
64932;SDS011;51446;53.850;10.662;2022-12-13T06:36:05;42.80;;;21.80;;
64932;SDS011;51446;53.850;10.662;2022-12-13T06:38:30;47.67;;;22.17;;
64932;SDS011;51446;53.850;10.662;2022-12-13T06:41:05;48.60;;;23.23;;
64932;SDS011;51446;53.850;10.662;2022-12-13T06:43:34;48.20;;;22.65;;
64932;SDS011;51446;53.850;10.662;2022-12-13T06:46:01;51.93;;;24.07;;
64932;SDS011;51446;53.850;10.662;2022-12-13T06:48:27;52.50;;;24.65;;
64932;SDS011;51446;53.850;10.662;2022-12-13T06:50:52;47.37;;;23.33;;
64932;SDS011;51446;53.850;10.662;2022-12-13T06:53:17;62.17;;;26.43;;
64932;SDS011;51446;53.850;10.662;2022-12-13T06:55:43;62.20;;;27.73;;
64932;SDS011;51446;53.850;10.662;2022-12-13T06:58:08;71.90;;;29.17;;
64932;SDS011;51446;53.850;10.662;2022-12-13T07:00:33;61.40;;;27.43;;
64932;SDS011;51446;53.850;10.662;2022-12-13T07:02:58;57.17;;;26.37;;
64932;SDS011;51446;53.850;10.662;2022-12-13T07:05:24;48.30;;;22.70;;
64932;SDS011;51446;53.850;10.662;2022-12-13T07:07:51;47.85;;;23.80;;
64932;SDS011;51446;53.850;10.662;2022-12-13T07:10:16;48.00;;;22.13;;
64932;SDS011;51446;53.850;10.662;2022-12-13T07:12:41;50.33;;;22.13;;
64932;SDS011;51446;53.850;10.662;2022-12-13T07:15:07;45.93;;;22.60;;
64932;SDS011;51446;53.850;10.662;2022-12-13T07:17:33;46.75;;;21.35;;
64932;SDS011;51446;53.850;10.662;2022-12-13T07:19:58;47.43;;;22.80;;
64932;SDS011;51446;53.850;10.662;2022-12-13T07:22:23;43.07;;;20.87;;
64932;SDS011;51446;53.850;10.662;2022-12-13T07:24:49;47.23;;;22.47;;
64932;SDS011;51446;53.850;10.662;2022-12-13T07:27:14;47.83;;;21.37;;
64932;SDS011;51446;53.850;10.662;2022-12-13T07:29:39;46.20;;;22.53;;
64932;SDS011;51446;53.850;10.662;2022-12-13T07:32:05;48.13;;;21.60;;
64932;SDS011;51446;53.850;10.662;2022-12-13T07:34:30;49.30;;;23.00;;
64932;SDS011;51446;53.850;10.662;2022-12-13T07:36:55;51.13;;;22.40;;
64932;SDS011;51446;53.850;10.662;2022-12-13T07:39:22;47.87;;;21.60;;
64932;SDS011;51446;53.850;10.662;2022-12-13T07:41:51;50.78;;;20.08;;
64932;SDS011;51446;53.850;10.662;2022-12-13T07:44:18;47.80;;;19.63;;
64932;SDS011;51446;53.850;10.662;2022-12-13T07:46:46;47.33;;;21.67;;
64932;SDS011;51446;53.850;10.662;2022-12-13T07:49:11;42.43;;;20.03;;
64932;SDS011;51446;53.850;10.662;2022-12-13T07:51:36;40.83;;;19.93;;
64932;SDS011;51446;53.850;10.662;2022-12-13T07:54:02;39.70;;;18.33;;
64932;SDS011;51446;53.850;10.662;2022-12-13T07:56:28;45.65;;;20.98;;
64932;SDS011;51446;53.850;10.662;2022-12-13T07:58:53;42.33;;;20.30;;
64932;SDS011;51446;53.850;10.662;2022-12-13T08:01:18;44.50;;;20.90;;
64932;SDS011;51446;53.850;10.662;2022-12-13T08:03:46;43.03;;;20.17;;
64932;SDS011;51446;53.850;10.662;2022-12-13T08:06:12;41.00;;;19.95;;
64932;SDS011;51446;53.850;10.662;2022-12-13T08:08:37;35.90;;;18.33;;
64932;SDS011;51446;53.850;10.662;2022-12-13T08:11:04;35.57;;;18.20;;
64932;SDS011;51446;53.850;10.662;2022-12-13T08:13:31;31.20;;;16.38;;
64932;SDS011;51446;53.850;10.662;2022-12-13T08:15:57;29.95;;;16.20;;
64932;SDS011;51446;53.850;10.662;2022-12-13T08:18:27;32.22;;;17.17;;
64932;SDS011;51446;53.850;10.662;2022-12-13T08:20:56;34.30;;;16.13;;
64932;SDS011;51446;53.850;10.662;2022-12-13T08:23:23;34.67;;;16.20;;
64932;SDS011;51446;53.850;10.662;2022-12-13T08:25:52;32.63;;;16.60;;
64932;SDS011;51446;53.850;10.662;2022-12-13T08:28:18;32.80;;;16.48;;
64932;SDS011;51446;53.850;10.662;2022-12-13T08:30:43;29.57;;;15.87;;
64932;SDS011;51446;53.850;10.662;2022-12-13T08:33:09;30.98;;;14.98;;
64932;SDS011;51446;53.850;10.662;2022-12-13T08:35:34;28.23;;;14.77;;
64932;SDS011;51446;53.850;10.662;2022-12-13T08:37:59;29.30;;;15.07;;
64932;SDS011;51446;53.850;10.662;2022-12-13T08:40:24;30.43;;;15.70;;
64932;SDS011;51446;53.850;10.662;2022-12-13T08:42:50;32.47;;;16.20;;
64932;SDS011;51446;53.850;10.662;2022-12-13T08:45:15;34.70;;;15.50;;
64932;SDS011;51446;53.850;10.662;2022-12-13T08:47:40;29.67;;;15.77;;
64932;SDS011;51446;53.850;10.662;2022-12-13T08:50:06;35.07;;;17.03;;
64932;SDS011;51446;53.850;10.662;2022-12-13T08:52:31;33.00;;;15.70;;
64932;SDS011;51446;53.850;10.662;2022-12-13T08:54:58;33.78;;;17.08;;
64932;SDS011;51446;53.850;10.662;2022-12-13T08:57:23;29.70;;;15.73;;
64932;SDS011;51446;53.850;10.662;2022-12-13T08:59:48;30.97;;;16.70;;
64932;SDS011;51446;53.850;10.662;2022-12-13T09:02:14;35.57;;;15.77;;
64932;SDS011;51446;53.850;10.662;2022-12-13T09:04:40;31.08;;;16.17;;
64932;SDS011;51446;53.850;10.662;2022-12-13T09:07:06;30.17;;;14.93;;
64932;SDS011;51446;53.850;10.662;2022-12-13T09:09:31;26.87;;;14.00;;
64932;SDS011;51446;53.850;10.662;2022-12-13T09:11:56;22.43;;;13.73;;
64932;SDS011;51446;53.850;10.662;2022-12-13T09:14:22;25.27;;;13.23;;
64932;SDS011;51446;53.850;10.662;2022-12-13T09:16:47;25.60;;;14.77;;
64932;SDS011;51446;53.850;10.662;2022-12-13T09:19:12;30.70;;;13.93;;
64932;SDS011;51446;53.850;10.662;2022-12-13T09:21:37;28.40;;;14.00;;
64932;SDS011;51446;53.850;10.662;2022-12-13T09:24:03;26.70;;;13.60;;
64932;SDS011;51446;53.850;10.662;2022-12-13T09:26:28;27.50;;;14.97;;
64932;SDS011;51446;53.850;10.662;2022-12-13T09:28:53;28.07;;;13.80;;
64932;SDS011;51446;53.850;10.662;2022-12-13T09:31:19;22.37;;;13.00;;
64932;SDS011;51446;53.850;10.662;2022-12-13T09:33:45;23.77;;;12.95;;
64932;SDS011;51446;53.850;10.662;2022-12-13T09:36:11;24.83;;;13.13;;
64932;SDS011;51446;53.850;10.662;2022-12-13T09:38:39;24.85;;;12.15;;
64932;SDS011;51446;53.850;10.662;2022-12-13T09:41:10;25.00;;;13.63;;
64932;SDS011;51446;53.850;10.662;2022-12-13T09:43:41;26.17;;;12.95;;
64932;SDS011;51446;53.850;10.662;2022-12-13T09:46:17;21.48;;;12.23;;
64932;SDS011;51446;53.850;10.662;2022-12-13T09:49:03;23.25;;;12.57;;
64932;SDS011;51446;53.850;10.662;2022-12-13T09:51:31;22.10;;;11.55;;
64932;SDS011;51446;53.850;10.662;2022-12-13T09:53:57;23.23;;;12.27;;
64932;SDS011;51446;53.850;10.662;2022-12-13T09:56:24;23.52;;;11.65;;
64932;SDS011;51446;53.850;10.662;2022-12-13T09:58:50;21.97;;;12.20;;
64932;SDS011;51446;53.850;10.662;2022-12-13T10:01:17;19.88;;;11.50;;
64932;SDS011;51446;53.850;10.662;2022-12-13T10:03:45;19.75;;;11.40;;
64932;SDS011;51446;53.850;10.662;2022-12-13T10:06:14;18.50;;;10.82;;
64932;SDS011;51446;53.850;10.662;2022-12-13T10:08:51;19.80;;;11.20;;
64932;SDS011;51446;53.850;10.662;2022-12-13T10:11:19;19.65;;;11.30;;
64932;SDS011;51446;53.850;10.662;2022-12-13T10:13:47;18.50;;;10.85;;
64932;SDS011;51446;53.850;10.662;2022-12-13T10:16:24;20.83;;;10.90;;
64932;SDS011;51446;53.850;10.662;2022-12-13T10:18:55;17.45;;;10.60;;
64932;SDS011;51446;53.850;10.662;2022-12-13T10:21:23;18.50;;;10.43;;
64932;SDS011;51446;53.850;10.662;2022-12-13T10:23:52;19.17;;;10.50;;
64932;SDS011;51446;53.850;10.662;2022-12-13T10:26:18;17.43;;;9.93;;
64932;SDS011;51446;53.850;10.662;2022-12-13T10:28:43;18.53;;;10.80;;
64932;SDS011;51446;53.850;10.662;2022-12-13T10:31:14;19.73;;;11.40;;
64932;SDS011;51446;53.850;10.662;2022-12-13T10:33:43;18.83;;;10.75;;
64932;SDS011;51446;53.850;10.662;2022-12-13T10:39:00;19.27;;;11.23;;
64932;SDS011;51446;53.850;10.662;2022-12-13T10:46:52;16.67;;;10.10;;
64932;SDS011;51446;53.850;10.662;2022-12-13T10:49:54;18.10;;;9.85;;
64932;SDS011;51446;53.850;10.662;2022-12-13T10:52:29;16.15;;;9.93;;
64932;SDS011;51446;53.850;10.662;2022-12-13T10:54:57;20.63;;;10.68;;
64932;SDS011;51446;53.850;10.662;2022-12-13T10:57:26;20.90;;;10.70;;
64932;SDS011;51446;53.850;10.662;2022-12-13T10:59:52;18.98;;;10.95;;
64932;SDS011;51446;53.850;10.662;2022-12-13T11:02:31;16.37;;;9.57;;
64932;SDS011;51446;53.850;10.662;2022-12-13T11:04:57;17.83;;;9.55;;
64932;SDS011;51446;53.850;10.662;2022-12-13T11:09:53;15.43;;;9.13;;
64932;SDS011;51446;53.850;10.662;2022-12-13T11:12:20;17.10;;;10.07;;
64932;SDS011;51446;53.850;10.662;2022-12-13T11:14:55;17.03;;;10.23;;
64932;SDS011;51446;53.850;10.662;2022-12-13T11:17:25;18.85;;;10.68;;
64932;SDS011;51446;53.850;10.662;2022-12-13T11:19:55;17.88;;;10.75;;
64932;SDS011;51446;53.850;10.662;2022-12-13T11:22:27;21.20;;;10.98;;
64932;SDS011;51446;53.850;10.662;2022-12-13T11:24:58;18.20;;;10.93;;
64932;SDS011;51446;53.850;10.662;2022-12-13T11:30:03;20.42;;;11.07;;
64932;SDS011;51446;53.850;10.662;2022-12-13T11:32:39;16.75;;;10.68;;
64932;SDS011;51446;53.850;10.662;2022-12-13T11:35:39;21.23;;;11.10;;
64932;SDS011;51446;53.850;10.662;2022-12-13T11:41:22;21.50;;;11.95;;
64932;SDS011;51446;53.850;10.662;2022-12-13T11:46:30;22.20;;;11.43;;
64932;SDS011;51446;53.850;10.662;2022-12-13T11:49:14;18.02;;;10.82;;
64932;SDS011;51446;53.850;10.662;2022-12-13T11:51:49;21.67;;;11.93;;
64932;SDS011;51446;53.850;10.662;2022-12-13T11:54:20;17.80;;;10.93;;
64932;SDS011;51446;53.850;10.662;2022-12-13T11:56:55;20.52;;;11.85;;
64932;SDS011;51446;53.850;10.662;2022-12-13T12:02:11;23.40;;;11.80;;
64932;SDS011;51446;53.850;10.662;2022-12-13T12:04:55;20.13;;;11.60;;
64932;SDS011;51446;53.850;10.662;2022-12-13T12:07:23;23.30;;;12.57;;
64932;SDS011;51446;53.850;10.662;2022-12-13T12:09:58;20.70;;;12.18;;
64932;SDS011;51446;53.850;10.662;2022-12-13T12:12:36;21.58;;;11.73;;
64932;SDS011;51446;53.850;10.662;2022-12-13T12:17:52;21.07;;;12.00;;
64932;SDS011;51446;53.850;10.662;2022-12-13T12:20:19;19.58;;;11.70;;
64932;SDS011;51446;53.850;10.662;2022-12-13T12:23:41;20.77;;;11.48;;
64932;SDS011;51446;53.850;10.662;2022-12-13T12:26:06;22.45;;;11.63;;
64932;SDS011;51446;53.850;10.662;2022-12-13T12:28:51;18.48;;;11.48;;
64932;SDS011;51446;53.850;10.662;2022-12-13T12:31:54;18.23;;;10.90;;
64932;SDS011;51446;53.850;10.662;2022-12-13T12:34:30;21.58;;;12.15;;
64932;SDS011;51446;53.850;10.662;2022-12-13T12:37:11;21.15;;;11.55;;
64932;SDS011;51446;53.850;10.662;2022-12-13T12:42:23;23.60;;;12.40;;
64932;SDS011;51446;53.850;10.662;2022-12-13T12:45:02;20.93;;;12.30;;
64932;SDS011;51446;53.850;10.662;2022-12-13T12:50:32;20.52;;;11.73;;
64932;SDS011;51446;53.850;10.662;2022-12-13T12:53:10;20.77;;;11.65;;
64932;SDS011;51446;53.850;10.662;2022-12-13T12:55:51;20.75;;;12.20;;
64932;SDS011;51446;53.850;10.662;2022-12-13T13:01:13;24.88;;;13.25;;
64932;SDS011;51446;53.850;10.662;2022-12-13T13:03:53;20.45;;;11.55;;
64932;SDS011;51446;53.850;10.662;2022-12-13T13:06:26;20.42;;;11.95;;
64932;SDS011;51446;53.850;10.662;2022-12-13T13:09:07;21.30;;;12.57;;
64932;SDS011;51446;53.850;10.662;2022-12-13T13:11:36;27.67;;;13.27;;
64932;SDS011;51446;53.850;10.662;2022-12-13T13:16:52;22.20;;;12.35;;
64932;SDS011;51446;53.850;10.662;2022-12-13T13:21:44;21.60;;;12.77;;
64932;SDS011;51446;53.850;10.662;2022-12-13T13:24:12;24.02;;;13.25;;
64932;SDS011;51446;53.850;10.662;2022-12-13T13:26:40;23.47;;;12.47;;
64932;SDS011;51446;53.850;10.662;2022-12-13T13:34:51;25.02;;;12.98;;
64932;SDS011;51446;53.850;10.662;2022-12-13T13:42:17;25.63;;;14.20;;
64932;SDS011;51446;53.850;10.662;2022-12-13T13:49:49;29.08;;;15.77;;
64932;SDS011;51446;53.850;10.662;2022-12-13T13:53:19;27.90;;;14.17;;
64932;SDS011;51446;53.850;10.662;2022-12-13T13:55:48;23.92;;;13.32;;
64932;SDS011;51446;53.850;10.662;2022-12-13T13:59:04;24.42;;;12.65;;
64932;SDS011;51446;53.850;10.662;2022-12-13T14:10:24;26.08;;;14.35;;
64932;SDS011;51446;53.850;10.662;2022-12-13T14:27:47;30.05;;;15.13;;
64932;SDS011;51446;53.850;10.662;2022-12-13T14:30:18;29.55;;;15.02;;
64932;SDS011;51446;53.850;10.662;2022-12-13T14:32:47;30.90;;;15.88;;
64932;SDS011;51446;53.850;10.662;2022-12-13T14:35:21;32.60;;;18.17;;
64932;SDS011;51446;53.850;10.662;2022-12-13T14:37:53;35.75;;;17.90;;
64932;SDS011;51446;53.850;10.662;2022-12-13T14:42:59;35.80;;;17.85;;
64932;SDS011;51446;53.850;10.662;2022-12-13T14:45:29;32.83;;;17.65;;
64932;SDS011;51446;53.850;10.662;2022-12-13T14:48:02;29.50;;;16.63;;
64932;SDS011;51446;53.850;10.662;2022-12-13T14:50:30;27.60;;;15.55;;
64932;SDS011;51446;53.850;10.662;2022-12-13T14:52:59;29.75;;;15.68;;
64932;SDS011;51446;53.850;10.662;2022-12-13T14:55:28;31.73;;;15.85;;
64932;SDS011;51446;53.850;10.662;2022-12-13T14:58:01;27.65;;;14.65;;
64932;SDS011;51446;53.850;10.662;2022-12-13T15:00:39;26.40;;;14.97;;
64932;SDS011;51446;53.850;10.662;2022-12-13T15:03:05;29.17;;;15.63;;
64932;SDS011;51446;53.850;10.662;2022-12-13T15:05:41;31.80;;;15.75;;
64932;SDS011;51446;53.850;10.662;2022-12-13T15:08:09;26.88;;;15.80;;
64932;SDS011;51446;53.850;10.662;2022-12-13T15:10:39;28.23;;;15.60;;
64932;SDS011;51446;53.850;10.662;2022-12-13T15:13:17;27.40;;;15.07;;
64932;SDS011;51446;53.850;10.662;2022-12-13T15:15:54;28.17;;;15.52;;
64932;SDS011;51446;53.850;10.662;2022-12-13T15:18:24;28.52;;;15.13;;
64932;SDS011;51446;53.850;10.662;2022-12-13T15:20:51;29.63;;;15.43;;
64932;SDS011;51446;53.850;10.662;2022-12-13T15:23:22;31.38;;;15.68;;
64932;SDS011;51446;53.850;10.662;2022-12-13T15:25:54;28.93;;;15.43;;
64932;SDS011;51446;53.850;10.662;2022-12-13T15:28:32;29.40;;;15.23;;
64932;SDS011;51446;53.850;10.662;2022-12-13T15:31:00;33.65;;;16.92;;
64932;SDS011;51446;53.850;10.662;2022-12-13T15:33:28;34.25;;;16.48;;
64932;SDS011;51446;53.850;10.662;2022-12-13T15:36:02;33.60;;;17.33;;
64932;SDS011;51446;53.850;10.662;2022-12-13T15:38:31;35.87;;;16.70;;
64932;SDS011;51446;53.850;10.662;2022-12-13T15:40:58;33.67;;;17.05;;
64932;SDS011;51446;53.850;10.662;2022-12-13T15:43:34;36.08;;;16.15;;
64932;SDS011;51446;53.850;10.662;2022-12-13T15:46:05;28.30;;;15.35;;
64932;SDS011;51446;53.850;10.662;2022-12-13T15:48:33;32.60;;;16.88;;
64932;SDS011;51446;53.850;10.662;2022-12-13T15:53:32;36.33;;;17.42;;
64932;SDS011;51446;53.850;10.662;2022-12-13T15:55:58;32.22;;;16.75;;
64932;SDS011;51446;53.850;10.662;2022-12-13T16:00:50;37.58;;;18.70;;
64932;SDS011;51446;53.850;10.662;2022-12-13T16:03:16;31.57;;;17.80;;
64932;SDS011;51446;53.850;10.662;2022-12-13T16:08:29;33.28;;;18.50;;